Aérodrome :
LOGIN :

S'inscrire | Disclaimer

   EN    FR    IT 

 










Légende :    VFR   VFR Marginal   IFR   IFR Intensif   IFR Très Intensif
Visi : 
Plafond : 
>= 8 km
>= 3000ft
5 à 8 km
1000 à 3000 ft
1500m à 5 km
500 à 1000 ft
800 à 1500m
200 à 500 ft
< 800m
< 200 ft
Symboles :   Orages  Brouillard  Fortes neiges  Fortes précipitations  Vent > 20 kt
SIGMETs :   Divers  Orages  Givrage  Turbulence  Onde Orograph.  Cendres Volcan.







- Altitude de l'aérodrome : 20 ft


EBFN - Koksijde

DERNIER METAR :
  • 160725Z 20008KT 9999 FEW013 BKN026 18/15 Q1015 BLACKBLU BLU TEMPO WHT

METARs EXPIRÉS :
  • 160655Z 19006KT 9999 FEW013 BKN026 17/15 Q1015 BLACKBLU BLU TEMPO WHT
  • 160648Z 19007KT 9999 FEW013 BKN029 17/15 Q1016 BLACKBLU BLU TEMPO WHT
  • 160625Z 19007KT 9999 FEW013 BKN029 16/15 Q1016 BLU BLU TEMPO WHT
  • 160624Z 19007KT 9999 FEW013 BKN029 16/15 Q1016 BLU BLU TEMPO WHT
  • 160555Z 19008KT 9999 FEW013 SCT024 16/15 Q1016 WHT BLU TEMPO WHT
  • 160554Z 19008KT 9999 FEW013 SCT024 16/15 Q1016 WHT BLU TEMPO WHT
  • 160525Z 20008KT 9000 FEW020 15/14 Q1016 BLU BLU TEMPO WHT
  • 160455Z 19007KT 8000 FEW020 15/14 Q1016 BLU BLU TEMPO WHT

TAF TAF EBFN
Valide du 16 à 07h jusqu'au 16 à 16h UTC


160541Z 1607/1616 20010KT 9999 FEW020
BECMG 1607/1609 BKN025
TEMPO 1607/1612 BKN020
BECMG 1611/1613 29015KT FEW030 SCT035
TEMPO 1614/1616 30015G25KT 4000 SHRA FEW012 SCT024TCU
PROB30
TEMPO 1615/1616 30015G30KT 2000 TSRA SCT007 BKN020CB
Pas de NOTAMs connus pour ce terrain.



MET'MAP, la Météo Aéronautique d'un coup d'oeil ! - Copyright ORBIFLY Décembre 2007 - Disclaimer

ORBIFLY MET'MAP TEAM :

Programmation & Développement : Alexandra Zaïnal
Conception & Développement : Baudouin d'Aumeries
Co-Programmation & Développement : Marc-Olivier Méhu
Soutien technique & logistique : Manuel Goepfert

Contact : metmap@orbifly.com




SOURCES & CREDITS :

   NOAA